Time;durP1;ratioP1;P1;durP2;ratioP2;P2;SDS_P1;SDS_P2;PMS_P1;PMS_P2;Temp;Humidity;BMP_temperature;BMP_pressure;BME280_temperature;BME280_humidity;BME280_pressure;Samples;Min_cycle;Max_cycle;Signal;HPM_P1;HPM_P2
2021/03/01 00:01:44;;;;;;;20.13;12.90;;;;;;;;;;5011790;28;20428;-87
2021/03/01 00:04:10;;;;;;;20.77;13.10;;;;;;;;;;5017790;28;20401;-87
2021/03/01 00:06:36;;;;;;;23.52;13.75;;;;;;;;;;5041396;28;20430;-87
2021/03/01 00:09:02;;;;;;;20.98;12.98;;;;;;;;;;5055253;28;20453;-87
2021/03/01 00:11:28;;;;;;;18.85;12.57;;;;;;;;;;5024540;28;20412;-87
2021/03/01 00:13:54;;;;;;;20.17;12.98;;;;;;;;;;5037591;28;21162;-87
2021/03/01 00:16:20;;;;;;;20.02;12.77;;;;;;;;;;5017958;28;20892;-87
2021/03/01 00:18:46;;;;;;;17.70;12.35;;;;;;;;;;5051294;28;20420;-86
2021/03/01 00:21:14;;;;;;;20.10;13.60;;;;;;;;;;5013012;28;20395;-86
2021/03/01 00:23:40;;;;;;;23.38;14.43;;;;;;;;;;5026117;28;20406;-87
2021/03/01 00:26:06;;;;;;;20.52;13.32;;;;;;;;;;5018334;28;20765;-86
2021/03/01 00:28:32;;;;;;;23.87;14.20;;;;;;;;;;5028002;28;20512;-87
2021/03/01 00:30:57;;;;;;;21.70;13.90;;;;;;;;;;5049378;28;20412;-87
2021/03/01 00:33:23;;;;;;;21.58;13.55;;;;;;;;;;5027396;28;20789;-87
2021/03/01 00:35:49;;;;;;;20.60;13.60;;;;;;;;;;5020076;28;20420;-87
2021/03/01 00:38:15;;;;;;;21.88;13.40;;;;;;;;;;5047040;28;20461;-87
2021/03/01 00:40:41;;;;;;;19.77;12.82;;;;;;;;;;5018405;28;20484;-87
2021/03/01 00:43:07;;;;;;;21.55;13.82;;;;;;;;;;5020356;28;20424;-87
2021/03/01 00:45:33;;;;;;;22.08;13.45;;;;;;;;;;5028046;28;20426;-87
2021/03/01 00:47:59;;;;;;;20.27;13.53;;;;;;;;;;5046530;28;20478;-87
2021/03/01 00:50:25;;;;;;;19.00;12.93;;;;;;;;;;5048902;28;20436;-87
2021/03/01 00:52:51;;;;;;;19.23;13.23;;;;;;;;;;5035822;28;20432;-87
2021/03/01 00:55:17;;;;;;;22.40;13.75;;;;;;;;;;5032203;28;20472;-87
2021/03/01 00:57:43;;;;;;;23.57;14.37;;;;;;;;;;5052442;28;20926;-86
2021/03/01 01:00:09;;;;;;;20.88;13.63;;;;;;;;;;5026069;28;20509;-87
2021/03/01 01:02:35;;;;;;;23.08;13.48;;;;;;;;;;5045425;28;20488;-87
2021/03/01 01:05:01;;;;;;;21.00;13.35;;;;;;;;;;5032285;28;20835;-87
2021/03/01 01:07:27;;;;;;;22.77;13.35;;;;;;;;;;5039572;28;20445;-86
2021/03/01 01:09:53;;;;;;;22.77;13.88;;;;;;;;;;5033685;28;20429;-87
2021/03/01 01:12:19;;;;;;;20.90;13.57;;;;;;;;;;5045763;28;20936;-87
2021/03/01 01:14:45;;;;;;;21.15;13.55;;;;;;;;;;5023212;28;20830;-87
2021/03/01 01:17:14;;;;;;;21.53;13.17;;;;;;;;;;5036691;28;20416;-87
2021/03/01 01:19:39;;;;;;;21.75;13.45;;;;;;;;;;5035827;28;20540;-87
2021/03/01 01:22:05;;;;;;;21.60;14.25;;;;;;;;;;5052081;28;20544;-87
2021/03/01 01:24:33;;;;;;;21.20;13.63;;;;;;;;;;5046030;28;20403;-87
2021/03/01 01:26:59;;;;;;;21.40;14.00;;;;;;;;;;5022836;28;20408;-87
2021/03/01 01:29:25;;;;;;;21.15;13.75;;;;;;;;;;5053158;28;20823;-86
2021/03/01 01:31:51;;;;;;;21.25;13.90;;;;;;;;;;5046501;28;20413;-87
2021/03/01 01:34:17;;;;;;;19.90;13.32;;;;;;;;;;5031723;28;20479;-87
2021/03/01 01:36:43;;;;;;;23.25;14.43;;;;;;;;;;5043013;28;20896;-86
2021/03/01 01:39:09;;;;;;;22.33;13.93;;;;;;;;;;5047430;28;20471;-87
2021/03/01 01:41:35;;;;;;;24.40;14.43;;;;;;;;;;5039788;28;20417;-87
2021/03/01 01:44:01;;;;;;;21.85;13.80;;;;;;;;;;5045793;28;20756;-87
2021/03/01 01:46:27;;;;;;;24.95;14.90;;;;;;;;;;5034261;28;20401;-87
2021/03/01 01:48:53;;;;;;;21.67;14.48;;;;;;;;;;5052387;28;20899;-88
2021/03/01 01:51:19;;;;;;;21.42;14.25;;;;;;;;;;5042174;28;20500;-87
2021/03/01 01:53:45;;;;;;;21.77;13.40;;;;;;;;;;5037340;28;20995;-87
2021/03/01 01:56:11;;;;;;;23.83;14.57;;;;;;;;;;5052682;28;20410;-87
2021/03/01 01:58:36;;;;;;;24.83;14.95;;;;;;;;;;5052055;28;20479;-87
2021/03/01 02:01:02;;;;;;;22.20;15.10;;;;;;;;;;5015353;28;20891;-87
2021/03/01 02:03:47;;;;;;;23.73;14.52;;;;;;;;;;5013649;28;20494;-86
2021/03/01 02:06:23;;;;;;;21.70;13.63;;;;;;;;;;5034059;28;20413;-87
2021/03/01 02:08:52;;;;;;;22.08;14.13;;;;;;;;;;5050785;28;20393;-87
2021/03/01 02:11:37;;;;;;;22.90;15.18;;;;;;;;;;5032478;28;20424;-86
2021/03/01 02:14:03;;;;;;;23.00;14.47;;;;;;;;;;5049683;28;20411;-87
2021/03/01 02:16:33;;;;;;;21.40;13.93;;;;;;;;;;5033806;28;20496;-87
2021/03/01 02:18:59;;;;;;;20.92;13.95;;;;;;;;;;5036186;28;20405;-88
2021/03/01 02:21:25;;;;;;;22.23;14.70;;;;;;;;;;5043239;28;21000;-87
2021/03/01 02:23:51;;;;;;;21.90;15.68;;;;;;;;;;5037449;28;20400;-87
2021/03/01 02:26:26;;;;;;;24.75;15.00;;;;;;;;;;5014414;28;20411;-86
2021/03/01 02:28:54;;;;;;;21.52;14.18;;;;;;;;;;5050014;28;20394;-87
2021/03/01 02:31:20;;;;;;;22.35;15.45;;;;;;;;;;5012262;28;20429;-87
2021/03/01 02:33:47;;;;;;;23.33;14.50;;;;;;;;;;5014548;28;20474;-86
2021/03/01 02:36:13;;;;;;;22.42;13.70;;;;;;;;;;5034404;28;20404;-87
2021/03/01 02:38:40;;;;;;;24.95;15.02;;;;;;;;;;5035666;28;20416;-86
2021/03/01 02:41:06;;;;;;;22.15;14.43;;;;;;;;;;5030770;28;20891;-86
2021/03/01 02:43:32;;;;;;;23.63;14.70;;;;;;;;;;5047555;28;20409;-87
2021/03/01 02:45:58;;;;;;;24.92;14.48;;;;;;;;;;5031304;28;20811;-85
2021/03/01 02:48:24;;;;;;;24.60;14.70;;;;;;;;;;5043203;28;20416;-87
2021/03/01 02:50:50;;;;;;;25.27;15.27;;;;;;;;;;5027433;28;20475;-87
2021/03/01 02:53:16;;;;;;;21.05;14.10;;;;;;;;;;5039368;28;20917;-87
2021/03/01 02:55:43;;;;;;;22.50;14.80;;;;;;;;;;5036887;28;20423;-87
2021/03/01 02:58:09;;;;;;;23.88;15.13;;;;;;;;;;5013333;28;20517;-87
2021/03/01 03:00:35;;;;;;;23.07;15.17;;;;;;;;;;5031189;28;20991;-87
2021/03/01 03:03:01;;;;;;;22.33;14.07;;;;;;;;;;5023896;28;20498;-86
2021/03/01 03:05:27;;;;;;;22.55;14.75;;;;;;;;;;5025157;28;20411;-87
2021/03/01 03:07:52;;;;;;;24.88;15.15;;;;;;;;;;5052715;28;20471;-87
2021/03/01 03:10:18;;;;;;;25.10;15.60;;;;;;;;;;5029321;28;20407;-86
2021/03/01 03:12:45;;;;;;;26.02;16.00;;;;;;;;;;5016487;28;20421;-87
2021/03/01 03:15:14;;;;;;;24.92;15.00;;;;;;;;;;5034467;28;20467;-87
2021/03/01 03:17:40;;;;;;;21.40;15.18;;;;;;;;;;5022310;28;20413;-86
2021/03/01 03:20:07;;;;;;;23.65;15.00;;;;;;;;;;5012172;28;20779;-87
2021/03/01 03:22:33;;;;;;;24.17;15.80;;;;;;;;;;5050472;28;20410;-87
2021/03/01 03:24:59;;;;;;;24.48;16.02;;;;;;;;;;5032075;28;20440;-87
2021/03/01 03:27:24;;;;;;;24.73;15.90;;;;;;;;;;5034168;28;20405;-86
2021/03/01 03:29:50;;;;;;;27.20;16.30;;;;;;;;;;5050284;28;20766;-87
2021/03/01 03:32:16;;;;;;;26.02;16.00;;;;;;;;;;5034135;28;20413;-87
2021/03/01 03:34:42;;;;;;;22.85;14.45;;;;;;;;;;5049861;28;20777;-86
2021/03/01 03:37:10;;;;;;;23.67;15.48;;;;;;;;;;5031215;28;20428;-86
2021/03/01 03:39:37;;;;;;;25.13;15.40;;;;;;;;;;5028843;28;20405;-86
2021/03/01 03:42:03;;;;;;;23.90;15.20;;;;;;;;;;5024629;28;20821;-87
2021/03/01 03:44:30;;;;;;;27.83;16.25;;;;;;;;;;5029307;28;20394;-86
2021/03/01 03:46:55;;;;;;;25.58;15.90;;;;;;;;;;5035239;28;20405;-86
2021/03/01 03:49:21;;;;;;;23.45;14.90;;;;;;;;;;5050645;28;20415;-87
2021/03/01 03:51:47;;;;;;;24.57;15.23;;;;;;;;;;5037243;28;20432;-87
2021/03/01 03:54:18;;;;;;;24.88;15.60;;;;;;;;;;5009028;28;20419;-87
2021/03/01 03:56:46;;;;;;;24.48;15.02;;;;;;;;;;5032076;28;20926;-87
2021/03/01 03:59:12;;;;;;;25.23;15.55;;;;;;;;;;5028255;28;20454;-87
2021/03/01 04:01:38;;;;;;;25.95;15.35;;;;;;;;;;5022301;28;20502;-87
2021/03/01 04:04:04;;;;;;;26.90;16.10;;;;;;;;;;5039567;28;20407;-87
2021/03/01 04:06:31;;;;;;;24.35;15.40;;;;;;;;;;5032926;28;20401;-86
2021/03/01 04:08:57;;;;;;;24.17;15.40;;;;;;;;;;5033120;28;20409;-86
2021/03/01 04:11:23;;;;;;;24.55;15.02;;;;;;;;;;5015440;28;20409;-87
2021/03/01 04:13:49;;;;;;;20.60;14.67;;;;;;;;;;5031017;28;20885;-87
2021/03/01 04:16:15;;;;;;;25.02;15.05;;;;;;;;;;5027993;28;20455;-87
2021/03/01 04:18:41;;;;;;;24.33;15.27;;;;;;;;;;5033092;28;20496;-87
2021/03/01 04:21:08;;;;;;;26.58;16.27;;;;;;;;;;5032227;28;20421;-87
2021/03/01 04:23:34;;;;;;;24.17;15.40;;;;;;;;;;5033323;28;20409;-87
2021/03/01 04:26:00;;;;;;;25.77;14.73;;;;;;;;;;5031504;28;20437;-86
2021/03/01 04:28:26;;;;;;;22.02;14.38;;;;;;;;;;5014490;28;21124;-86
2021/03/01 04:30:52;;;;;;;25.33;15.63;;;;;;;;;;5010755;28;20457;-86
2021/03/01 04:33:18;;;;;;;25.25;15.60;;;;;;;;;;5024253;28;21298;-87
2021/03/01 04:35:44;;;;;;;26.83;15.20;;;;;;;;;;5028673;28;20417;-86
2021/03/01 04:38:10;;;;;;;25.88;16.05;;;;;;;;;;5033970;28;20763;-87
2021/03/01 04:40:36;;;;;;;25.52;15.57;;;;;;;;;;5028911;28;20437;-87
2021/03/01 04:43:02;;;;;;;25.15;15.25;;;;;;;;;;5030540;28;20439;-86
2021/03/01 04:45:28;;;;;;;23.92;15.40;;;;;;;;;;5020272;28;20837;-87
2021/03/01 04:47:54;;;;;;;27.77;16.15;;;;;;;;;;5003001;28;20405;-87
2021/03/01 04:50:20;;;;;;;22.20;14.97;;;;;;;;;;5008907;28;20801;-86
2021/03/01 04:52:46;;;;;;;25.73;15.10;;;;;;;;;;5033249;28;20459;-86
2021/03/01 04:55:12;;;;;;;28.08;16.02;;;;;;;;;;5018309;28;20405;-86
2021/03/01 04:57:38;;;;;;;24.92;15.48;;;;;;;;;;5017594;28;20521;-87
2021/03/01 05:00:05;;;;;;;24.50;15.85;;;;;;;;;;5039448;28;20455;-87
2021/03/01 05:02:31;;;;;;;26.73;16.10;;;;;;;;;;5020622;28;20470;-86
2021/03/01 05:04:58;;;;;;;23.45;15.30;;;;;;;;;;5031883;28;20444;-86
2021/03/01 05:07:28;;;;;;;27.70;15.48;;;;;;;;;;5037747;28;20494;-86
2021/03/01 05:09:54;;;;;;;28.17;16.77;;;;;;;;;;5047126;28;20411;-86
2021/03/01 05:12:20;;;;;;;35.38;15.50;;;;;;;;;;5027882;28;20417;-87
2021/03/01 05:14:46;;;;;;;25.55;15.50;;;;;;;;;;5042470;28;20519;-86
2021/03/01 05:17:11;;;;;;;25.42;15.82;;;;;;;;;;5037977;28;20488;-87
2021/03/01 05:19:37;;;;;;;27.05;16.70;;;;;;;;;;5047626;28;20890;-87
2021/03/01 05:22:03;;;;;;;29.52;16.42;;;;;;;;;;5049766;28;20393;-86
2021/03/01 05:24:29;;;;;;;26.92;16.85;;;;;;;;;;5029261;28;20475;-86
2021/03/01 05:26:55;;;;;;;28.15;17.58;;;;;;;;;;5043875;28;21035;-86
2021/03/01 05:29:21;;;;;;;28.92;16.38;;;;;;;;;;5034631;28;20402;-86
2021/03/01 05:31:47;;;;;;;28.63;16.57;;;;;;;;;;5046714;28;20487;-86
2021/03/01 05:34:14;;;;;;;25.15;15.88;;;;;;;;;;5013233;28;20395;-86
2021/03/01 05:36:40;;;;;;;27.77;15.60;;;;;;;;;;5031109;28;20405;-86
2021/03/01 05:39:09;;;;;;;30.20;16.60;;;;;;;;;;5039820;28;20404;-86
2021/03/01 05:41:35;;;;;;;26.60;16.60;;;;;;;;;;5045288;28;20422;-87
2021/03/01 05:44:01;;;;;;;29.15;17.00;;;;;;;;;;5041265;28;20409;-86
2021/03/01 05:46:27;;;;;;;29.67;18.17;;;;;;;;;;5028587;28;20401;-86
2021/03/01 05:48:53;;;;;;;25.77;17.05;;;;;;;;;;5049510;28;20768;-86
2021/03/01 05:51:21;;;;;;;24.75;15.65;;;;;;;;;;5047384;28;20413;-87
2021/03/01 05:53:46;;;;;;;23.77;15.55;;;;;;;;;;5051509;28;20515;-87
2021/03/01 05:56:12;;;;;;;25.57;15.37;;;;;;;;;;5029939;28;20895;-87
2021/03/01 05:58:38;;;;;;;23.25;15.38;;;;;;;;;;5031091;28;20411;-87
2021/03/01 06:01:05;;;;;;;26.55;16.08;;;;;;;;;;5043717;28;20408;-87
2021/03/01 06:03:31;;;;;;;24.05;15.23;;;;;;;;;;5007663;28;20776;-86
2021/03/01 06:05:57;;;;;;;24.33;15.43;;;;;;;;;;5022518;28;20407;-87
2021/03/01 06:08:24;;;;;;;25.45;15.13;;;;;;;;;;5013200;28;20415;-86
2021/03/01 06:10:50;;;;;;;25.50;15.57;;;;;;;;;;5032876;28;20760;-87
2021/03/01 06:13:17;;;;;;;24.88;15.43;;;;;;;;;;5029965;28;20480;-86
2021/03/01 06:15:43;;;;;;;24.33;15.57;;;;;;;;;;5035263;28;20429;-86
2021/03/01 06:18:09;;;;;;;24.65;15.88;;;;;;;;;;5012536;28;20493;-87
2021/03/01 06:20:36;;;;;;;23.60;15.95;;;;;;;;;;5023229;28;20413;-86
2021/03/01 06:23:02;;;;;;;23.33;15.50;;;;;;;;;;5014669;28;20415;-87
2021/03/01 06:25:28;;;;;;;21.83;15.13;;;;;;;;;;5016226;28;20760;-85
2021/03/01 06:27:58;;;;;;;24.08;15.38;;;;;;;;;;5023320;28;20409;-88
2021/03/01 06:30:24;;;;;;;22.92;15.48;;;;;;;;;;5004882;28;20402;-86
2021/03/01 06:33:06;;;;;;;23.58;15.68;;;;;;;;;;5055210;28;20784;-86
2021/03/01 06:35:33;;;;;;;24.65;16.48;;;;;;;;;;5033674;28;20589;-86
2021/03/01 06:38:12;;;;;;;22.98;16.10;;;;;;;;;;5017114;28;20430;-85
2021/03/01 06:41:30;;;;;;;24.58;14.90;;;;;;;;;;5033260;28;20428;-85
2021/03/01 06:44:04;;;;;;;22.38;15.32;;;;;;;;;;5036650;28;20413;-85
2021/03/01 06:46:31;;;;;;;27.55;16.92;;;;;;;;;;5036311;28;20425;-86
2021/03/01 06:48:57;;;;;;;24.38;15.85;;;;;;;;;;5038271;28;20902;-85
2021/03/01 06:51:25;;;;;;;23.25;15.82;;;;;;;;;;5029251;28;20429;-86
2021/03/01 06:53:58;;;;;;;23.45;15.30;;;;;;;;;;5052081;28;20444;-85
2021/03/01 06:56:24;;;;;;;21.98;15.57;;;;;;;;;;5023336;28;20414;-85
2021/03/01 06:58:50;;;;;;;21.63;14.73;;;;;;;;;;5039637;28;20421;-86
2021/03/01 07:01:41;;;;;;;24.67;15.82;;;;;;;;;;5050938;28;20397;-86
2021/03/01 07:04:07;;;;;;;32.92;17.40;;;;;;;;;;5048401;28;20421;-85
2021/03/01 07:06:36;;;;;;;23.93;15.03;;;;;;;;;;5030788;28;20399;-86
2021/03/01 07:09:02;;;;;;;23.92;15.80;;;;;;;;;;5027772;28;20734;-85
2021/03/01 07:11:53;;;;;;;25.30;14.98;;;;;;;;;;5015009;28;20407;-85
2021/03/01 07:14:46;;;;;;;21.70;14.03;;;;;;;;;;5052593;28;20394;-86
2021/03/01 07:20:04;;;;;;;19.90;13.85;;;;;;;;;;5049731;28;20416;-84
2021/03/01 07:22:33;;;;;;;20.67;13.77;;;;;;;;;;5018625;28;20796;-85
2021/03/01 07:25:05;;;;;;;21.02;13.13;;;;;;;;;;5017622;28;20929;-86
2021/03/01 07:27:31;;;;;;;22.08;13.75;;;;;;;;;;5007046;28;20823;-89
2021/03/01 07:29:58;;;;;;;21.77;13.90;;;;;;;;;;5023922;28;20421;-88
2021/03/01 07:32:24;;;;;;;21.50;14.55;;;;;;;;;;5034326;28;20503;-87
2021/03/01 07:34:50;;;;;;;22.27;14.32;;;;;;;;;;5028423;28;20399;-85
2021/03/01 07:37:16;;;;;;;20.55;13.95;;;;;;;;;;5035180;28;20887;-85
2021/03/01 07:39:54;;;;;;;18.00;12.63;;;;;;;;;;5015848;28;20402;-84
2021/03/01 07:42:20;;;;;;;15.88;12.52;;;;;;;;;;5032214;28;20444;-85
2021/03/01 07:44:52;;;;;;;21.38;13.98;;;;;;;;;;5011765;28;20413;-85
2021/03/01 07:47:21;;;;;;;17.30;12.68;;;;;;;;;;5014658;28;20418;-85
2021/03/01 07:50:16;;;;;;;17.48;13.32;;;;;;;;;;5006396;28;20467;-85
2021/03/01 07:52:58;;;;;;;18.23;13.00;;;;;;;;;;4939571;28;20433;-85
2021/03/01 07:55:30;;;;;;;15.27;11.93;;;;;;;;;;4937965;28;20414;-85
2021/03/01 07:58:06;;;;;;;17.90;12.13;;;;;;;;;;5008496;28;20504;-85
2021/03/01 08:00:41;;;;;;;18.58;11.52;;;;;;;;;;5009703;28;20426;-85
2021/03/01 08:03:38;;;;;;;16.33;12.25;;;;;;;;;;5015208;28;20470;-85
2021/03/01 08:06:21;;;;;;;16.77;12.15;;;;;;;;;;5031413;28;20743;-86
2021/03/01 08:18:20;;;;;;;16.58;11.02;;;;;;;;;;4958715;28;20400;-85
2021/03/01 08:21:01;;;;;;;14.68;11.57;;;;;;;;;;5017590;28;20457;-85
2021/03/01 08:24:14;;;;;;;16.02;11.52;;;;;;;;;;5031554;28;20411;-85
2021/03/01 08:26:43;;;;;;;14.05;11.02;;;;;;;;;;4993173;28;20416;-85
2021/03/01 08:29:19;;;;;;;14.23;11.15;;;;;;;;;;4966660;28;20422;-85
2021/03/01 08:31:44;;;;;;;13.65;10.80;;;;;;;;;;4965680;28;20424;-85
2021/03/01 08:37:14;;;;;;;12.13;10.80;;;;;;;;;;4986407;28;20452;-85
2021/03/01 08:39:58;;;;;;;14.52;10.85;;;;;;;;;;4970059;28;20416;-86
2021/03/01 08:42:42;;;;;;;12.35;11.05;;;;;;;;;;4997864;28;20418;-84
2021/03/01 08:45:08;;;;;;;12.73;10.63;;;;;;;;;;4987497;28;20425;-85
2021/03/01 08:47:34;;;;;;;14.98;11.38;;;;;;;;;;5019988;28;20410;-85
2021/03/01 08:52:49;;;;;;;16.27;11.30;;;;;;;;;;5018895;28;20420;-85
2021/03/01 08:55:24;;;;;;;12.70;10.77;;;;;;;;;;5050102;28;20399;-84
2021/03/01 08:57:56;;;;;;;12.60;9.98;;;;;;;;;;5048920;28;20417;-89
2021/03/01 09:00:22;;;;;;;10.73;9.63;;;;;;;;;;5042378;28;20468;-89
2021/03/01 09:12:02;;;;;;;12.48;10.77;;;;;;;;;;5041284;28;20448;-85
2021/03/01 09:14:58;;;;;;;11.90;10.35;;;;;;;;;;5011923;28;20411;-85
2021/03/01 09:17:30;;;;;;;12.35;10.23;;;;;;;;;;5008041;28;20414;-85
2021/03/01 09:23:47;;;;;;;14.20;9.98;;;;;;;;;;4968661;28;20908;-85
2021/03/01 09:26:19;;;;;;;11.82;10.18;;;;;;;;;;4991818;28;20417;-85
2021/03/01 09:28:48;;;;;;;11.40;9.48;;;;;;;;;;5027691;28;20413;-84
2021/03/01 09:31:15;;;;;;;12.40;10.32;;;;;;;;;;5007631;28;20782;-85
2021/03/01 09:34:06;;;;;;;12.15;9.93;;;;;;;;;;5028158;28;20755;-84
2021/03/01 09:36:32;;;;;;;11.40;9.20;;;;;;;;;;5029638;28;20911;-85
2021/03/01 09:38:58;;;;;;;10.02;9.02;;;;;;;;;;5018486;28;20892;-86
2021/03/01 09:41:45;;;;;;;9.67;8.77;;;;;;;;;;5034030;28;20405;-85
2021/03/01 09:44:24;;;;;;;10.43;8.75;;;;;;;;;;5019324;28;20446;-85
2021/03/01 09:46:50;;;;;;;11.43;8.77;;;;;;;;;;5029333;28;20467;-85
2021/03/01 09:49:16;;;;;;;9.73;8.70;;;;;;;;;;5022222;28;20480;-86
2021/03/01 09:51:42;;;;;;;10.45;9.18;;;;;;;;;;5014579;28;21087;-83
2021/03/01 09:54:14;;;;;;;9.00;7.85;;;;;;;;;;4997822;28;20419;-83
2021/03/01 09:56:52;;;;;;;9.32;8.50;;;;;;;;;;5018181;28;20409;-85
2021/03/01 09:59:58;;;;;;;9.27;8.43;;;;;;;;;;5004566;28;20409;-83
2021/03/01 10:02:26;;;;;;;9.85;8.55;;;;;;;;;;5024883;28;20854;-84
2021/03/01 10:05:11;;;;;;;9.68;8.82;;;;;;;;;;5017245;28;20770;-85
2021/03/01 10:07:37;;;;;;;8.77;7.93;;;;;;;;;;5025190;28;20414;-87
2021/03/01 10:10:13;;;;;;;8.88;7.97;;;;;;;;;;5014660;28;20422;-91
2021/03/01 10:12:45;;;;;;;9.30;8.48;;;;;;;;;;5005933;28;20435;-85
2021/03/01 10:15:11;;;;;;;10.52;8.55;;;;;;;;;;5022145;28;20406;-86
2021/03/01 10:17:37;;;;;;;9.07;8.00;;;;;;;;;;5023763;28;20399;-82
2021/03/01 10:20:07;;;;;;;9.73;8.25;;;;;;;;;;5018509;28;20425;-83
2021/03/01 10:23:09;;;;;;;9.52;8.60;;;;;;;;;;5005119;28;20412;-83
2021/03/01 10:25:35;;;;;;;9.57;8.50;;;;;;;;;;5025449;28;20498;-83
2021/03/01 10:28:02;;;;;;;9.40;8.27;;;;;;;;;;5012856;28;20860;-83
2021/03/01 10:30:27;;;;;;;8.95;8.10;;;;;;;;;;5017482;28;20492;-83
2021/03/01 10:33:03;;;;;;;10.20;9.13;;;;;;;;;;5021858;28;20523;-83
2021/03/01 10:35:29;;;;;;;9.77;8.77;;;;;;;;;;5025352;28;20445;-83
2021/03/01 10:38:02;;;;;;;10.55;9.43;;;;;;;;;;5009892;28;20462;-82
2021/03/01 10:40:29;;;;;;;10.45;8.85;;;;;;;;;;5023980;28;20407;-83
2021/03/01 10:42:55;;;;;;;11.87;8.73;;;;;;;;;;4991895;28;20892;-83
2021/03/01 10:45:21;;;;;;;10.77;9.53;;;;;;;;;;5025373;28;20411;-85
2021/03/01 10:47:58;;;;;;;10.57;9.20;;;;;;;;;;5001705;28;20467;-83
2021/03/01 10:50:24;;;;;;;11.30;9.03;;;;;;;;;;5019104;28;20413;-83
2021/03/01 10:52:50;;;;;;;10.27;8.97;;;;;;;;;;5038893;28;20465;-83
2021/03/01 10:55:16;;;;;;;10.48;8.10;;;;;;;;;;5025333;28;20833;-83
2021/03/01 10:57:42;;;;;;;9.98;8.93;;;;;;;;;;5046033;28;20413;-83
2021/03/01 11:00:14;;;;;;;10.02;8.45;;;;;;;;;;5021876;28;20429;-83
2021/03/01 11:02:40;;;;;;;12.60;8.60;;;;;;;;;;5042453;28;20413;-83
2021/03/01 11:05:06;;;;;;;9.07;7.68;;;;;;;;;;5041844;28;20418;-83
2021/03/01 11:07:32;;;;;;;12.75;8.40;;;;;;;;;;5036815;28;20499;-83
2021/03/01 11:09:58;;;;;;;8.05;7.25;;;;;;;;;;5039694;28;20553;-83
2021/03/01 11:12:24;;;;;;;8.02;7.20;;;;;;;;;;5039811;28;20831;-83
2021/03/01 11:14:50;;;;;;;9.00;8.10;;;;;;;;;;5040277;28;20494;-83
2021/03/01 11:17:16;;;;;;;8.82;7.75;;;;;;;;;;5022014;28;20497;-87
2021/03/01 11:19:42;;;;;;;11.95;7.90;;;;;;;;;;5029457;28;20440;-83
2021/03/01 11:22:10;;;;;;;8.25;7.32;;;;;;;;;;5051022;28;20409;-83
2021/03/01 11:24:36;;;;;;;14.85;8.38;;;;;;;;;;5023247;28;20416;-83
2021/03/01 11:27:02;;;;;;;10.95;8.13;;;;;;;;;;5040011;28;20415;-83
2021/03/01 11:29:28;;;;;;;10.27;7.82;;;;;;;;;;5037284;28;20416;-83
2021/03/01 11:31:54;;;;;;;9.85;8.02;;;;;;;;;;5026771;28;20878;-83
2021/03/01 11:34:20;;;;;;;10.35;7.68;;;;;;;;;;5041507;28;20507;-83
2021/03/01 11:36:46;;;;;;;9.10;8.20;;;;;;;;;;5051244;28;20407;-84
2021/03/01 11:39:15;;;;;;;12.40;8.07;;;;;;;;;;5038278;28;20775;-83
2021/03/01 11:41:41;;;;;;;13.73;7.93;;;;;;;;;;5050181;28;20440;-83
2021/03/01 11:44:07;;;;;;;10.15;7.97;;;;;;;;;;5044910;28;20405;-83
2021/03/01 11:46:33;;;;;;;12.63;7.68;;;;;;;;;;5025604;28;20413;-84
2021/03/01 11:48:59;;;;;;;10.52;8.07;;;;;;;;;;5036489;28;20416;-83
2021/03/01 11:51:25;;;;;;;10.45;8.15;;;;;;;;;;5022745;28;20409;-83
2021/03/01 11:53:52;;;;;;;9.23;7.90;;;;;;;;;;5057387;28;20904;-83
2021/03/01 11:56:20;;;;;;;10.68;7.75;;;;;;;;;;5045439;28;20399;-83
2021/03/01 11:58:45;;;;;;;9.63;7.18;;;;;;;;;;5055209;28;20458;-83
2021/03/01 12:01:11;;;;;;;11.15;7.10;;;;;;;;;;5023780;28;20766;-83
2021/03/01 12:03:39;;;;;;;10.20;7.25;;;;;;;;;;5033070;28;20397;-83
2021/03/01 12:06:05;;;;;;;11.88;7.38;;;;;;;;;;5040023;28;20401;-84
2021/03/01 12:08:31;;;;;;;10.50;7.15;;;;;;;;;;5035747;28;20393;-83
2021/03/01 12:11:03;;;;;;;9.07;7.20;;;;;;;;;;5044221;28;20417;-84
2021/03/01 12:13:29;;;;;;;12.75;7.90;;;;;;;;;;5023588;28;20433;-84
2021/03/01 12:15:55;;;;;;;8.32;6.93;;;;;;;;;;5042628;28;20413;-83
2021/03/01 12:18:21;;;;;;;7.22;6.50;;;;;;;;;;5032251;28;20405;-83
2021/03/01 12:20:47;;;;;;;7.75;6.28;;;;;;;;;;5044591;28;20737;-83
2021/03/01 12:23:13;;;;;;;8.27;6.25;;;;;;;;;;5051093;28;20492;-83
2021/03/01 12:25:39;;;;;;;10.05;6.07;;;;;;;;;;5035762;28;21744;-83
2021/03/01 12:28:05;;;;;;;6.20;5.60;;;;;;;;;;5022763;28;20439;-83
2021/03/01 12:30:31;;;;;;;10.55;6.50;;;;;;;;;;5049836;28;20908;-83
2021/03/01 12:32:57;;;;;;;6.03;5.35;;;;;;;;;;5050724;28;20453;-83
2021/03/01 12:35:23;;;;;;;14.57;6.27;;;;;;;;;;5029098;28;20413;-87
2021/03/01 12:37:48;;;;;;;8.07;6.27;;;;;;;;;;5003908;28;20486;-89
2021/03/01 12:40:15;;;;;;;11.07;6.73;;;;;;;;;;5015597;28;20423;-84
2021/03/01 12:42:41;;;;;;;6.80;5.75;;;;;;;;;;5014040;28;20416;-85
2021/03/01 12:45:07;;;;;;;7.10;5.68;;;;;;;;;;5015728;28;20413;-87
2021/03/01 12:47:33;;;;;;;10.10;6.05;;;;;;;;;;5021970;28;20409;-85
2021/03/01 12:49:59;;;;;;;6.05;5.40;;;;;;;;;;5056649;28;20404;-85
2021/03/01 12:52:25;;;;;;;7.80;5.60;;;;;;;;;;5047348;28;20453;-86
2021/03/01 12:54:51;;;;;;;7.85;5.85;;;;;;;;;;5028187;28;20398;-85
2021/03/01 12:57:17;;;;;;;6.68;5.95;;;;;;;;;;5024446;28;20424;-86
2021/03/01 12:59:43;;;;;;;9.60;5.30;;;;;;;;;;5022529;28;20420;-85
2021/03/01 13:02:08;;;;;;;5.90;5.20;;;;;;;;;;5036191;28;20411;-85
2021/03/01 13:04:37;;;;;;;7.00;5.45;;;;;;;;;;5033371;28;20411;-85
2021/03/01 13:07:03;;;;;;;7.78;5.80;;;;;;;;;;5034483;28;20415;-85
2021/03/01 13:09:29;;;;;;;5.82;5.22;;;;;;;;;;5032290;28;20759;-85
2021/03/01 13:11:55;;;;;;;19.92;6.30;;;;;;;;;;5016954;28;20953;-87
2021/03/01 13:14:21;;;;;;;6.85;5.53;;;;;;;;;;5036438;28;20446;-85
2021/03/01 13:16:47;;;;;;;6.80;5.45;;;;;;;;;;5015961;28;20399;-84
2021/03/01 13:19:15;;;;;;;8.02;5.07;;;;;;;;;;5018599;28;20465;-84
2021/03/01 13:21:43;;;;;;;7.35;4.80;;;;;;;;;;5020689;28;20530;-85
2021/03/01 13:24:09;;;;;;;11.07;5.70;;;;;;;;;;5018515;28;20826;-85
2021/03/01 13:26:35;;;;;;;5.55;4.88;;;;;;;;;;5036314;28;20393;-85
2021/03/01 13:29:01;;;;;;;6.22;4.70;;;;;;;;;;5035715;28;21394;-85
2021/03/01 13:31:28;;;;;;;6.95;5.00;;;;;;;;;;5032452;28;20884;-86
2021/03/01 13:33:53;;;;;;;8.73;5.60;;;;;;;;;;5021346;28;20451;-87
2021/03/01 13:36:20;;;;;;;5.75;5.25;;;;;;;;;;5026425;28;20448;-85
2021/03/01 13:38:45;;;;;;;6.50;5.13;;;;;;;;;;5043350;28;20407;-84
2021/03/01 13:41:11;;;;;;;9.30;6.07;;;;;;;;;;5037341;28;20485;-86
2021/03/01 13:43:37;;;;;;;9.07;6.10;;;;;;;;;;5044772;28;20413;-89
2021/03/01 13:46:03;;;;;;;7.03;5.53;;;;;;;;;;5026912;28;20506;-85
2021/03/01 13:48:35;;;;;;;11.70;6.10;;;;;;;;;;5030181;28;20409;-85
2021/03/01 13:51:01;;;;;;;10.52;6.93;;;;;;;;;;5031524;28;20405;-89
2021/03/01 13:53:28;;;;;;;10.45;7.97;;;;;;;;;;5047185;28;20425;-89
2021/03/01 13:55:54;;;;;;;9.57;7.78;;;;;;;;;;5013383;28;20403;-88
2021/03/01 13:58:20;;;;;;;10.35;8.27;;;;;;;;;;5049772;28;20509;-84
2021/03/01 14:00:46;;;;;;;8.50;7.60;;;;;;;;;;5040297;28;20421;-90
2021/03/01 14:03:15;;;;;;;11.15;7.88;;;;;;;;;;5051046;28;20397;-85
2021/03/01 14:05:41;;;;;;;10.98;8.02;;;;;;;;;;5032055;28;20397;-89
2021/03/01 14:08:07;;;;;;;12.32;7.95;;;;;;;;;;5049418;28;20468;-85
2021/03/01 14:13:36;;;;;;;10.95;8.63;;;;;;;;;;5048251;28;20431;-84
2021/03/01 14:16:02;;;;;;;13.80;9.32;;;;;;;;;;5040120;28;21071;-84
2021/03/01 14:18:28;;;;;;;10.77;7.95;;;;;;;;;;5034634;28;20406;-85
2021/03/01 14:20:54;;;;;;;10.53;8.53;;;;;;;;;;5036668;28;20425;-85
2021/03/01 14:23:20;;;;;;;8.83;7.50;;;;;;;;;;5042624;28;20453;-85
2021/03/01 14:25:46;;;;;;;10.63;8.20;;;;;;;;;;5028612;28;20403;-86
2021/03/01 14:28:12;;;;;;;12.03;8.20;;;;;;;;;;5034032;28;20405;-86
2021/03/01 14:30:38;;;;;;;11.50;8.20;;;;;;;;;;5033690;28;20456;-87
2021/03/01 14:33:04;;;;;;;13.88;10.20;;;;;;;;;;5019073;28;20982;-84
2021/03/01 14:35:30;;;;;;;10.82;8.65;;;;;;;;;;5031859;28;20397;-85
2021/03/01 14:37:56;;;;;;;10.90;9.10;;;;;;;;;;5018270;28;20416;-85
2021/03/01 14:40:22;;;;;;;13.20;9.35;;;;;;;;;;5033382;28;20969;-85
2021/03/01 14:42:48;;;;;;;13.55;8.55;;;;;;;;;;5034985;28;20409;-85
2021/03/01 14:45:14;;;;;;;16.30;8.82;;;;;;;;;;5011172;28;20423;-85
2021/03/01 14:47:40;;;;;;;13.98;9.43;;;;;;;;;;5053036;28;20467;-85
2021/03/01 14:50:07;;;;;;;10.53;8.37;;;;;;;;;;5033951;28;20492;-85
2021/03/01 14:52:32;;;;;;;11.50;8.70;;;;;;;;;;5026822;28;20432;-85
2021/03/01 14:54:59;;;;;;;11.55;8.25;;;;;;;;;;5046712;28;20405;-85
2021/03/01 14:57:25;;;;;;;13.80;9.13;;;;;;;;;;5050597;28;20473;-85
2021/03/01 14:59:50;;;;;;;12.33;9.43;;;;;;;;;;5033084;28;20462;-85
2021/03/01 15:02:16;;;;;;;11.77;9.10;;;;;;;;;;5012169;28;20399;-85
2021/03/01 15:04:42;;;;;;;11.20;9.57;;;;;;;;;;5032856;28;20722;-85